sensor_id;sensor_type;location;lat;lon;timestamp;pressure;altitude;pressure_sealevel;temperature;humidity
4598;BME280;62772;48.646;8.906;2023-02-03T00:00:41;97539.44;;;2.68;100.00
4598;BME280;62772;48.646;8.906;2023-02-03T00:05:42;97535.91;;;2.75;100.00
4598;BME280;62772;48.646;8.906;2023-02-03T00:10:43;97542.06;;;2.45;100.00
4598;BME280;62772;48.646;8.906;2023-02-03T00:15:44;97538.63;;;2.44;100.00
4598;BME280;62772;48.646;8.906;2023-02-03T00:20:44;97530.16;;;2.42;100.00
4598;BME280;62772;48.646;8.906;2023-02-03T00:25:45;97531.66;;;2.50;100.00
4598;BME280;62772;48.646;8.906;2023-02-03T00:30:45;97527.28;;;2.56;100.00
4598;BME280;62772;48.646;8.906;2023-02-03T00:35:45;97522.00;;;2.56;100.00
4598;BME280;62772;48.646;8.906;2023-02-03T00:40:52;97517.78;;;2.54;100.00
4598;BME280;62772;48.646;8.906;2023-02-03T00:45:53;97510.66;;;2.55;100.00
4598;BME280;62772;48.646;8.906;2023-02-03T00:50:54;97512.81;;;2.46;100.00
4598;BME280;62772;48.646;8.906;2023-02-03T00:55:54;97520.66;;;2.65;100.00
4598;BME280;62772;48.646;8.906;2023-02-03T01:00:55;97514.22;;;2.61;100.00
4598;BME280;62772;48.646;8.906;2023-02-03T01:06:07;97512.38;;;2.73;100.00
4598;BME280;62772;48.646;8.906;2023-02-03T01:11:11;97507.81;;;2.68;100.00
4598;BME280;62772;48.646;8.906;2023-02-03T01:16:14;97507.00;;;2.44;100.00
4598;BME280;62772;48.646;8.906;2023-02-03T01:21:21;97518.31;;;2.45;100.00
4598;BME280;62772;48.646;8.906;2023-02-03T01:26:24;97496.31;;;2.39;100.00
4598;BME280;62772;48.646;8.906;2023-02-03T01:31:30;97487.50;;;2.45;100.00
4598;BME280;62772;48.646;8.906;2023-02-03T01:36:35;97489.91;;;2.59;100.00
4598;BME280;62772;48.646;8.906;2023-02-03T01:41:37;97514.34;;;2.54;100.00
4598;BME280;62772;48.646;8.906;2023-02-03T01:46:46;97490.38;;;2.79;100.00
4598;BME280;62772;48.646;8.906;2023-02-03T01:51:48;97480.63;;;2.56;100.00
4598;BME280;62772;48.646;8.906;2023-02-03T01:57:00;97505.63;;;2.53;100.00
4598;BME280;62772;48.646;8.906;2023-02-03T02:02:03;97510.78;;;2.48;100.00
4598;BME280;62772;48.646;8.906;2023-02-03T02:07:05;97497.25;;;2.57;100.00
4598;BME280;62772;48.646;8.906;2023-02-03T02:12:09;97495.31;;;2.52;100.00
4598;BME280;62772;48.646;8.906;2023-02-03T02:17:38;97470.53;;;2.65;100.00
4598;BME280;62772;48.646;8.906;2023-02-03T02:28:36;97411.78;;;2.93;100.00
4598;BME280;62772;48.646;8.906;2023-02-03T02:44:06;97418.81;;;2.64;100.00
4598;BME280;62772;48.646;8.906;2023-02-03T02:49:21;97417.44;;;2.73;100.00
4598;BME280;62772;48.646;8.906;2023-02-03T02:54:26;97399.56;;;2.63;100.00
4598;BME280;62772;48.646;8.906;2023-02-03T02:59:28;97383.34;;;2.83;100.00
4598;BME280;62772;48.646;8.906;2023-02-03T03:04:32;97406.41;;;2.88;100.00
4598;BME280;62772;48.646;8.906;2023-02-03T03:09:39;97433.59;;;2.65;100.00
4598;BME280;62772;48.646;8.906;2023-02-03T03:14:44;97424.97;;;2.93;100.00
4598;BME280;62772;48.646;8.906;2023-02-03T03:19:51;97424.50;;;2.96;100.00
4598;BME280;62772;48.646;8.906;2023-02-03T03:25:08;97408.91;;;2.95;100.00
4598;BME280;62772;48.646;8.906;2023-02-03T03:30:20;97385.84;;;2.90;100.00
4598;BME280;62772;48.646;8.906;2023-02-03T03:35:22;97385.75;;;2.85;100.00
4598;BME280;62772;48.646;8.906;2023-02-03T03:40:30;97409.22;;;2.98;100.00
4598;BME280;62772;48.646;8.906;2023-02-03T03:45:46;97420.72;;;2.92;100.00
4598;BME280;62772;48.646;8.906;2023-02-03T03:50:53;97439.91;;;2.64;100.00
4598;BME280;62772;48.646;8.906;2023-02-03T03:55:56;97443.78;;;2.97;100.00
4598;BME280;62772;48.646;8.906;2023-02-03T04:01:01;97463.44;;;2.77;100.00
4598;BME280;62772;48.646;8.906;2023-02-03T04:06:03;97463.16;;;2.90;100.00
4598;BME280;62772;48.646;8.906;2023-02-03T04:11:04;97476.47;;;2.72;100.00
4598;BME280;62772;48.646;8.906;2023-02-03T04:16:05;97485.06;;;2.91;100.00
4598;BME280;62772;48.646;8.906;2023-02-03T04:21:05;97473.34;;;2.99;100.00
4598;BME280;62772;48.646;8.906;2023-02-03T04:26:06;97462.72;;;2.82;100.00
4598;BME280;62772;48.646;8.906;2023-02-03T04:31:06;97479.91;;;2.96;100.00
4598;BME280;62772;48.646;8.906;2023-02-03T04:36:07;97477.28;;;2.84;100.00
4598;BME280;62772;48.646;8.906;2023-02-03T04:41:08;97457.66;;;2.92;100.00
4598;BME280;62772;48.646;8.906;2023-02-03T04:46:08;97456.16;;;2.96;100.00
4598;BME280;62772;48.646;8.906;2023-02-03T04:51:09;97457.78;;;2.85;100.00
4598;BME280;62772;48.646;8.906;2023-02-03T04:56:10;97443.66;;;2.92;100.00
4598;BME280;62772;48.646;8.906;2023-02-03T05:01:10;97440.03;;;2.69;100.00
4598;BME280;62772;48.646;8.906;2023-02-03T05:06:11;97444.69;;;2.90;100.00
4598;BME280;62772;48.646;8.906;2023-02-03T05:11:11;97446.53;;;2.90;100.00
4598;BME280;62772;48.646;8.906;2023-02-03T05:16:11;97432.47;;;2.72;100.00
4598;BME280;62772;48.646;8.906;2023-02-03T05:21:13;97442.88;;;2.79;100.00
4598;BME280;62772;48.646;8.906;2023-02-03T05:26:13;97450.59;;;2.69;100.00
4598;BME280;62772;48.646;8.906;2023-02-03T05:31:14;97453.91;;;2.64;100.00
4598;BME280;62772;48.646;8.906;2023-02-03T05:36:14;97464.34;;;2.71;100.00
4598;BME280;62772;48.646;8.906;2023-02-03T05:41:15;97467.75;;;2.95;100.00
4598;BME280;62772;48.646;8.906;2023-02-03T05:46:34;97471.09;;;3.02;100.00
4598;BME280;62772;48.646;8.906;2023-02-03T05:51:34;97474.75;;;3.01;100.00
4598;BME280;62772;48.646;8.906;2023-02-03T05:56:35;97457.66;;;3.04;100.00
4598;BME280;62772;48.646;8.906;2023-02-03T06:01:36;97441.94;;;2.97;100.00
4598;BME280;62772;48.646;8.906;2023-02-03T06:06:36;97449.38;;;3.00;100.00
4598;BME280;62772;48.646;8.906;2023-02-03T06:11:37;97455.25;;;3.02;100.00
4598;BME280;62772;48.646;8.906;2023-02-03T06:16:37;97442.16;;;2.96;100.00
4598;BME280;62772;48.646;8.906;2023-02-03T06:21:38;97439.59;;;3.13;100.00
4598;BME280;62772;48.646;8.906;2023-02-03T06:26:38;97435.47;;;3.17;100.00
4598;BME280;62772;48.646;8.906;2023-02-03T06:31:38;97432.06;;;2.93;100.00
4598;BME280;62772;48.646;8.906;2023-02-03T06:36:39;97413.28;;;3.18;100.00
4598;BME280;62772;48.646;8.906;2023-02-03T06:41:39;97428.09;;;3.19;100.00
4598;BME280;62772;48.646;8.906;2023-02-03T06:46:40;97435.44;;;2.88;100.00
4598;BME280;62772;48.646;8.906;2023-02-03T06:51:40;97459.34;;;3.10;100.00
4598;BME280;62772;48.646;8.906;2023-02-03T06:56:40;97439.06;;;2.99;100.00
4598;BME280;62772;48.646;8.906;2023-02-03T07:01:41;97427.19;;;2.72;100.00
4598;BME280;62772;48.646;8.906;2023-02-03T07:06:41;97425.56;;;2.83;100.00
4598;BME280;62772;48.646;8.906;2023-02-03T07:11:42;97423.59;;;2.90;100.00
4598;BME280;62772;48.646;8.906;2023-02-03T07:16:42;97410.28;;;2.85;100.00
4598;BME280;62772;48.646;8.906;2023-02-03T07:21:42;97407.47;;;2.63;100.00
4598;BME280;62772;48.646;8.906;2023-02-03T07:26:43;97422.56;;;2.80;100.00
4598;BME280;62772;48.646;8.906;2023-02-03T07:31:43;97418.69;;;2.82;100.00
4598;BME280;62772;48.646;8.906;2023-02-03T07:36:44;97421.97;;;2.89;100.00
4598;BME280;62772;48.646;8.906;2023-02-03T07:41:44;97411.88;;;2.98;100.00
4598;BME280;62772;48.646;8.906;2023-02-03T07:46:45;97399.28;;;2.88;100.00
4598;BME280;62772;48.646;8.906;2023-02-03T07:51:45;97417.63;;;2.95;100.00
4598;BME280;62772;48.646;8.906;2023-02-03T07:56:46;97445.75;;;2.78;100.00
4598;BME280;62772;48.646;8.906;2023-02-03T08:01:46;97455.75;;;2.76;100.00
4598;BME280;62772;48.646;8.906;2023-02-03T08:06:46;97453.88;;;3.00;100.00
4598;BME280;62772;48.646;8.906;2023-02-03T08:11:47;97484.28;;;2.90;100.00
4598;BME280;62772;48.646;8.906;2023-02-03T08:16:47;97484.75;;;2.87;100.00
4598;BME280;62772;48.646;8.906;2023-02-03T08:21:48;97481.09;;;2.65;100.00
4598;BME280;62772;48.646;8.906;2023-02-03T08:26:48;97477.41;;;2.78;100.00
4598;BME280;62772;48.646;8.906;2023-02-03T08:31:49;97477.16;;;3.03;100.00
4598;BME280;62772;48.646;8.906;2023-02-03T08:36:49;97484.03;;;3.04;100.00
4598;BME280;62772;48.646;8.906;2023-02-03T08:41:50;97498.72;;;3.00;100.00
4598;BME280;62772;48.646;8.906;2023-02-03T08:46:51;97490.69;;;3.18;100.00
4598;BME280;62772;48.646;8.906;2023-02-03T08:51:52;97516.94;;;3.13;100.00
4598;BME280;62772;48.646;8.906;2023-02-03T08:56:53;97512.13;;;3.22;100.00
4598;BME280;62772;48.646;8.906;2023-02-03T09:01:53;97507.63;;;3.34;100.00
4598;BME280;62772;48.646;8.906;2023-02-03T09:06:54;97495.34;;;3.28;100.00
4598;BME280;62772;48.646;8.906;2023-02-03T09:11:54;97502.72;;;3.14;100.00
4598;BME280;62772;48.646;8.906;2023-02-03T09:17:02;97495.31;;;3.40;100.00
4598;BME280;62772;48.646;8.906;2023-02-03T09:22:03;97480.22;;;3.23;100.00
4598;BME280;62772;48.646;8.906;2023-02-03T09:27:04;97478.13;;;3.37;100.00
4598;BME280;62772;48.646;8.906;2023-02-03T09:32:04;97473.63;;;3.67;100.00
4598;BME280;62772;48.646;8.906;2023-02-03T09:37:08;97478.59;;;3.63;100.00
4598;BME280;62772;48.646;8.906;2023-02-03T09:47:22;97479.19;;;3.82;100.00
4598;BME280;62772;48.646;8.906;2023-02-03T09:52:26;97481.38;;;4.02;100.00
4598;BME280;62772;48.646;8.906;2023-02-03T09:57:30;97490.38;;;4.01;100.00
4598;BME280;62772;48.646;8.906;2023-02-03T10:13:03;97487.91;;;4.28;100.00
4598;BME280;62772;48.646;8.906;2023-02-03T10:18:14;97466.66;;;4.23;100.00
4598;BME280;62772;48.646;8.906;2023-02-03T10:23:30;97464.34;;;4.27;100.00
4598;BME280;62772;48.646;8.906;2023-02-03T10:28:44;97465.13;;;4.44;100.00
4598;BME280;62772;48.646;8.906;2023-02-03T10:33:53;97500.56;;;4.43;100.00
4598;BME280;62772;48.646;8.906;2023-02-03T10:39:19;97479.41;;;4.43;100.00
4598;BME280;62772;48.646;8.906;2023-02-03T10:44:27;97476.44;;;4.40;100.00
4598;BME280;62772;48.646;8.906;2023-02-03T10:49:30;97493.09;;;4.40;100.00
4598;BME280;62772;48.646;8.906;2023-02-03T10:54:33;97481.88;;;4.50;100.00
4598;BME280;62772;48.646;8.906;2023-02-03T10:59:35;97461.84;;;4.37;100.00
4598;BME280;62772;48.646;8.906;2023-02-03T11:04:36;97430.03;;;4.49;100.00
4598;BME280;62772;48.646;8.906;2023-02-03T11:09:39;97419.25;;;4.56;100.00
4598;BME280;62772;48.646;8.906;2023-02-03T11:14:48;97416.88;;;4.54;100.00
4598;BME280;62772;48.646;8.906;2023-02-03T11:19:50;97404.00;;;4.63;100.00
4598;BME280;62772;48.646;8.906;2023-02-03T11:24:52;97409.69;;;4.71;100.00
4598;BME280;62772;48.646;8.906;2023-02-03T11:35:23;97399.56;;;4.85;100.00
4598;BME280;62772;48.646;8.906;2023-02-03T11:40:32;97401.31;;;4.80;100.00
4598;BME280;62772;48.646;8.906;2023-02-03T11:45:42;97389.44;;;4.82;100.00
4598;BME280;62772;48.646;8.906;2023-02-03T12:07:01;97390.84;;;4.68;100.00
4598;BME280;62772;48.646;8.906;2023-02-03T12:17:51;97390.16;;;4.56;100.00
4598;BME280;62772;48.646;8.906;2023-02-03T12:33:46;97393.88;;;4.77;100.00
4598;BME280;62772;48.646;8.906;2023-02-03T12:39:05;97392.78;;;4.72;100.00
4598;BME280;62772;48.646;8.906;2023-02-03T12:44:18;97370.09;;;4.82;100.00
4598;BME280;62772;48.646;8.906;2023-02-03T12:49:30;97365.75;;;4.93;100.00
4598;BME280;62772;48.646;8.906;2023-02-03T13:00:14;97354.78;;;5.06;100.00
4598;BME280;62772;48.646;8.906;2023-02-03T13:05:29;97327.50;;;4.83;100.00
4598;BME280;62772;48.646;8.906;2023-02-03T13:10:47;97331.81;;;4.89;100.00
4598;BME280;62772;48.646;8.906;2023-02-03T13:15:50;97312.50;;;4.89;100.00
4598;BME280;62772;48.646;8.906;2023-02-03T13:20:52;97325.00;;;4.94;100.00
4598;BME280;62772;48.646;8.906;2023-02-03T13:42:07;97326.66;;;5.00;100.00
4598;BME280;62772;48.646;8.906;2023-02-03T13:47:18;97330.78;;;5.18;100.00
4598;BME280;62772;48.646;8.906;2023-02-03T13:52:34;97319.78;;;5.04;100.00
4598;BME280;62772;48.646;8.906;2023-02-03T13:57:37;97319.22;;;4.97;100.00
4598;BME280;62772;48.646;8.906;2023-02-03T14:02:41;97318.13;;;4.98;100.00
4598;BME280;62772;48.646;8.906;2023-02-03T14:07:42;97330.72;;;5.07;100.00
4598;BME280;62772;48.646;8.906;2023-02-03T14:22:52;97348.81;;;4.94;100.00
4598;BME280;62772;48.646;8.906;2023-02-03T14:28:04;97357.25;;;4.68;100.00
4598;BME280;62772;48.646;8.906;2023-02-03T14:33:06;97361.31;;;4.76;100.00
4598;BME280;62772;48.646;8.906;2023-02-03T14:38:11;97358.78;;;4.86;100.00
4598;BME280;62772;48.646;8.906;2023-02-03T14:43:42;97349.00;;;4.87;100.00
4598;BME280;62772;48.646;8.906;2023-02-03T14:48:57;97360.88;;;4.62;100.00
4598;BME280;62772;48.646;8.906;2023-02-03T14:59:23;97377.44;;;4.75;100.00
4598;BME280;62772;48.646;8.906;2023-02-03T15:04:27;97364.50;;;4.56;100.00
4598;BME280;62772;48.646;8.906;2023-02-03T15:09:37;97375.25;;;4.49;100.00
4598;BME280;62772;48.646;8.906;2023-02-03T15:14:38;97372.25;;;4.63;100.00
4598;BME280;62772;48.646;8.906;2023-02-03T15:19:40;97381.69;;;4.53;100.00
4598;BME280;62772;48.646;8.906;2023-02-03T15:24:41;97374.84;;;4.58;100.00
4598;BME280;62772;48.646;8.906;2023-02-03T15:29:42;97372.06;;;4.47;100.00
4598;BME280;62772;48.646;8.906;2023-02-03T15:34:47;97360.31;;;4.60;100.00
4598;BME280;62772;48.646;8.906;2023-02-03T15:40:00;97351.22;;;4.51;100.00
4598;BME280;62772;48.646;8.906;2023-02-03T15:45:07;97354.50;;;4.58;100.00
4598;BME280;62772;48.646;8.906;2023-02-03T15:50:28;97358.28;;;4.67;100.00
4598;BME280;62772;48.646;8.906;2023-02-03T15:55:35;97376.63;;;4.52;100.00
4598;BME280;62772;48.646;8.906;2023-02-03T16:00:39;97398.38;;;4.37;100.00
4598;BME280;62772;48.646;8.906;2023-02-03T16:05:40;97400.88;;;4.27;100.00
4598;BME280;62772;48.646;8.906;2023-02-03T16:10:41;97399.63;;;4.51;100.00
4598;BME280;62772;48.646;8.906;2023-02-03T16:15:41;97399.34;;;4.31;100.00
4598;BME280;62772;48.646;8.906;2023-02-03T16:20:50;97397.09;;;4.23;100.00
4598;BME280;62772;48.646;8.906;2023-02-03T16:26:16;97407.84;;;4.16;100.00
4598;BME280;62772;48.646;8.906;2023-02-03T16:31:18;97407.75;;;4.28;100.00
4598;BME280;62772;48.646;8.906;2023-02-03T16:36:39;97400.09;;;4.09;100.00
4598;BME280;62772;48.646;8.906;2023-02-03T16:41:59;97401.44;;;4.12;100.00
4598;BME280;62772;48.646;8.906;2023-02-03T16:47:27;97397.03;;;4.17;100.00
4598;BME280;62772;48.646;8.906;2023-02-03T16:52:47;97385.47;;;4.41;100.00
4598;BME280;62772;48.646;8.906;2023-02-03T16:57:47;97379.09;;;4.03;100.00
4598;BME280;62772;48.646;8.906;2023-02-03T17:02:50;97378.09;;;4.26;100.00
4598;BME280;62772;48.646;8.906;2023-02-03T17:07:51;97376.34;;;4.14;100.00
4598;BME280;62772;48.646;8.906;2023-02-03T17:12:51;97399.38;;;4.14;100.00
4598;BME280;62772;48.646;8.906;2023-02-03T17:17:52;97375.16;;;4.22;100.00
4598;BME280;62772;48.646;8.906;2023-02-03T17:22:53;97390.59;;;4.30;100.00
4598;BME280;62772;48.646;8.906;2023-02-03T17:27:54;97403.91;;;4.35;100.00
4598;BME280;62772;48.646;8.906;2023-02-03T17:32:54;97410.63;;;4.43;100.00
4598;BME280;62772;48.646;8.906;2023-02-03T17:37:54;97395.81;;;4.25;100.00
4598;BME280;62772;48.646;8.906;2023-02-03T17:42:55;97394.94;;;4.20;100.00
4598;BME280;62772;48.646;8.906;2023-02-03T17:47:55;97423.53;;;4.23;100.00
4598;BME280;62772;48.646;8.906;2023-02-03T17:52:58;97430.91;;;4.21;100.00
4598;BME280;62772;48.646;8.906;2023-02-03T17:57:59;97428.09;;;4.27;100.00
4598;BME280;62772;48.646;8.906;2023-02-03T18:02:59;97421.22;;;4.26;100.00
4598;BME280;62772;48.646;8.906;2023-02-03T18:08:00;97419.56;;;4.59;100.00
4598;BME280;62772;48.646;8.906;2023-02-03T18:13:00;97419.09;;;4.45;100.00
4598;BME280;62772;48.646;8.906;2023-02-03T18:18:00;97431.66;;;4.33;100.00
4598;BME280;62772;48.646;8.906;2023-02-03T18:23:01;97436.75;;;4.40;100.00
4598;BME280;62772;48.646;8.906;2023-02-03T18:28:01;97440.38;;;4.33;100.00
4598;BME280;62772;48.646;8.906;2023-02-03T18:33:02;97450.72;;;4.35;100.00
4598;BME280;62772;48.646;8.906;2023-02-03T18:38:03;97449.88;;;4.51;100.00
4598;BME280;62772;48.646;8.906;2023-02-03T18:43:04;97451.56;;;4.58;100.00
4598;BME280;62772;48.646;8.906;2023-02-03T18:48:04;97452.69;;;4.62;100.00
4598;BME280;62772;48.646;8.906;2023-02-03T18:53:05;97454.50;;;4.39;100.00
4598;BME280;62772;48.646;8.906;2023-02-03T18:58:06;97443.38;;;4.59;100.00
4598;BME280;62772;48.646;8.906;2023-02-03T19:03:06;97448.78;;;4.30;100.00
4598;BME280;62772;48.646;8.906;2023-02-03T19:08:07;97454.16;;;4.35;100.00
4598;BME280;62772;48.646;8.906;2023-02-03T19:13:07;97448.31;;;4.33;100.00
4598;BME280;62772;48.646;8.906;2023-02-03T19:18:08;97432.75;;;4.37;100.00
4598;BME280;62772;48.646;8.906;2023-02-03T19:23:10;97421.84;;;4.33;100.00
4598;BME280;62772;48.646;8.906;2023-02-03T19:28:11;97438.75;;;4.32;100.00
4598;BME280;62772;48.646;8.906;2023-02-03T19:33:11;97426.59;;;4.31;100.00
4598;BME280;62772;48.646;8.906;2023-02-03T19:38:11;97425.16;;;4.24;100.00
4598;BME280;62772;48.646;8.906;2023-02-03T19:43:12;97424.97;;;4.30;100.00
4598;BME280;62772;48.646;8.906;2023-02-03T19:48:12;97435.72;;;4.41;100.00
4598;BME280;62772;48.646;8.906;2023-02-03T19:53:14;97438.69;;;4.44;100.00
4598;BME280;62772;48.646;8.906;2023-02-03T19:58:15;97435.88;;;4.34;100.00
4598;BME280;62772;48.646;8.906;2023-02-03T20:03:16;97443.09;;;4.39;100.00
4598;BME280;62772;48.646;8.906;2023-02-03T20:08:17;97443.34;;;4.20;100.00
4598;BME280;62772;48.646;8.906;2023-02-03T20:13:18;97435.25;;;4.27;100.00
4598;BME280;62772;48.646;8.906;2023-02-03T20:18:18;97452.31;;;4.19;100.00
4598;BME280;62772;48.646;8.906;2023-02-03T20:23:19;97451.91;;;4.27;100.00
4598;BME280;62772;48.646;8.906;2023-02-03T20:28:24;97452.69;;;4.28;100.00
4598;BME280;62772;48.646;8.906;2023-02-03T20:33:27;97453.34;;;4.35;100.00
4598;BME280;62772;48.646;8.906;2023-02-03T20:38:28;97455.81;;;4.25;100.00
4598;BME280;62772;48.646;8.906;2023-02-03T20:43:28;97449.03;;;4.29;100.00
4598;BME280;62772;48.646;8.906;2023-02-03T20:48:31;97446.44;;;4.34;100.00
4598;BME280;62772;48.646;8.906;2023-02-03T20:53:31;97442.78;;;4.35;100.00
4598;BME280;62772;48.646;8.906;2023-02-03T20:58:33;97456.41;;;4.27;100.00
4598;BME280;62772;48.646;8.906;2023-02-03T21:03:34;97450.41;;;4.31;100.00
4598;BME280;62772;48.646;8.906;2023-02-03T21:08:53;97461.06;;;4.36;100.00
4598;BME280;62772;48.646;8.906;2023-02-03T21:13:54;97464.81;;;4.41;100.00
4598;BME280;62772;48.646;8.906;2023-02-03T21:18:57;97466.97;;;4.44;100.00
4598;BME280;62772;48.646;8.906;2023-02-03T21:24:00;97469.59;;;4.44;100.00
4598;BME280;62772;48.646;8.906;2023-02-03T21:29:01;97473.06;;;4.44;100.00
4598;BME280;62772;48.646;8.906;2023-02-03T21:34:32;97463.09;;;4.51;100.00
4598;BME280;62772;48.646;8.906;2023-02-03T21:39:33;97454.38;;;4.51;100.00
4598;BME280;62772;48.646;8.906;2023-02-03T21:44:34;97446.69;;;4.66;100.00
4598;BME280;62772;48.646;8.906;2023-02-03T21:49:37;97458.47;;;4.59;100.00
4598;BME280;62772;48.646;8.906;2023-02-03T21:54:39;97458.69;;;4.74;100.00
4598;BME280;62772;48.646;8.906;2023-02-03T21:59:42;97457.38;;;4.77;100.00
4598;BME280;62772;48.646;8.906;2023-02-03T22:04:46;97460.97;;;4.87;100.00
4598;BME280;62772;48.646;8.906;2023-02-03T22:09:46;97469.34;;;4.79;100.00
4598;BME280;62772;48.646;8.906;2023-02-03T22:14:49;97470.03;;;4.92;100.00
4598;BME280;62772;48.646;8.906;2023-02-03T22:19:50;97456.00;;;4.91;100.00
4598;BME280;62772;48.646;8.906;2023-02-03T22:24:50;97462.34;;;4.90;100.00
4598;BME280;62772;48.646;8.906;2023-02-03T22:29:51;97465.13;;;5.00;100.00
4598;BME280;62772;48.646;8.906;2023-02-03T22:34:55;97485.59;;;4.88;100.00
4598;BME280;62772;48.646;8.906;2023-02-03T22:39:55;97482.69;;;4.89;100.00
4598;BME280;62772;48.646;8.906;2023-02-03T22:44:56;97479.25;;;4.89;100.00
4598;BME280;62772;48.646;8.906;2023-02-03T22:49:56;97484.81;;;4.87;100.00
4598;BME280;62772;48.646;8.906;2023-02-03T22:54:57;97507.34;;;4.90;100.00
4598;BME280;62772;48.646;8.906;2023-02-03T22:59:58;97509.81;;;4.97;100.00
4598;BME280;62772;48.646;8.906;2023-02-03T23:04:58;97515.34;;;4.95;100.00
4598;BME280;62772;48.646;8.906;2023-02-03T23:09:59;97515.91;;;4.97;100.00
4598;BME280;62772;48.646;8.906;2023-02-03T23:15:00;97517.75;;;4.97;100.00
4598;BME280;62772;48.646;8.906;2023-02-03T23:20:00;97515.97;;;5.02;100.00
4598;BME280;62772;48.646;8.906;2023-02-03T23:25:00;97517.19;;;4.95;100.00
4598;BME280;62772;48.646;8.906;2023-02-03T23:30:02;97518.47;;;4.92;100.00
4598;BME280;62772;48.646;8.906;2023-02-03T23:35:03;97511.03;;;4.89;100.00
4598;BME280;62772;48.646;8.906;2023-02-03T23:40:23;97512.53;;;4.85;100.00
4598;BME280;62772;48.646;8.906;2023-02-03T23:45:23;97502.84;;;4.90;100.00
4598;BME280;62772;48.646;8.906;2023-02-03T23:50:23;97514.53;;;4.95;100.00
4598;BME280;62772;48.646;8.906;2023-02-03T23:55:24;97507.91;;;4.75;100.00
